📊 John's Weather Station

Last reading: 2021-04-23 23:07:07

TEMPERATURE

--

Temperature 20 readings
Min Max Average
19.54 °C 20.33 °C 19.92 °C

HUMIDITY

--

Humidity 20 readings
Min Max Average
82.18 % 85.94 % 84.2 %

View Latest 20 Readings

ID Sensor Location Temp Humid Bar Timestamp
61261 BME280 Lounge 19.68 82.18 1006.27 2021-04-23 23:07:07
61260 BME280 Lounge 19.54 83.40 1006.29 2021-04-23 22:57:06
61259 BME280 Lounge 19.60 83.43 1006.22 2021-04-23 22:47:05
61258 BME280 Lounge 19.77 83.25 1006.29 2021-04-23 22:37:04
61257 BME280 Lounge 19.65 84.10 1006.39 2021-04-23 22:27:03
61256 BME280 Lounge 19.66 84.11 1006.36 2021-04-23 22:17:01
61255 BME280 Lounge 19.71 84.28 1006.45 2021-04-23 22:07:00
61254 BME280 Lounge 19.78 84.31 1006.45 2021-04-23 21:56:59
61253 BME280 Lounge 19.83 83.27 1006.40 2021-04-23 21:46:58
61252 BME280 Lounge 19.90 83.15 1006.47 2021-04-23 21:36:57
61251 BME280 Lounge 19.94 83.39 1006.51 2021-04-23 21:26:56
61250 BME280 Lounge 19.97 83.62 1006.53 2021-04-23 21:16:51
61249 BME280 Lounge 20.03 84.64 1006.58 2021-04-23 21:06:50
61248 BME280 Lounge 20.10 84.73 1006.62 2021-04-23 20:56:49
61247 BME280 Lounge 20.15 84.74 1006.63 2021-04-23 20:46:48
61246 BME280 Lounge 20.10 85.27 1006.52 2021-04-23 20:36:47
61245 BME280 Lounge 20.14 85.94 1006.48 2021-04-23 20:26:45
61244 BME280 Lounge 20.28 85.70 1006.53 2021-04-23 20:16:44
61243 BME280 Lounge 20.33 85.40 1006.57 2021-04-23 20:06:43
61242 BME280 Lounge 20.26 85.11 1006.58 2021-04-23 19:56:42